BAW214 EGLL-EGAC
Flight info
| Callsign | BAW214 |
|---|---|
| Flight time | 0h 57m |
| Altitude | 32000 |
| Route | UMLAT T418 WELIN T420 TNT UL28 RODOL UM65 TENSO L603 BELOX DCT REMSI DCT NINEB M148 MAGEE |
| Aircraft | A320/M-SDE3FGHIRWY/LB1 |
Departure
| Time | 2026-05-04 02:24 |
|---|---|
| Airport | London Heathrow Airport (EGLL) |
Arrival
| Time | 2026-05-04 03:21 |
|---|---|
| Airport | George Best Belfast City Airport (EGAC) |
| Time | Latitude | Longitude | Altitude | Speed | Heading |
|---|---|---|---|---|---|
| 2026-05-04 01:57 | 51.47271 | -0.48588 | 87 ft | 0 kts | 270° |
| 2026-05-04 02:11 | 51.47271 | -0.48581 | 62 ft | 2 kts | 270° |
| 2026-05-04 02:11 | 51.47271 | -0.48550 | 88 ft | 3 kts | 269° |
| 2026-05-04 02:11 | 51.47271 | -0.48523 | 89 ft | 3 kts | 278° |
| 2026-05-04 02:11 | 51.47265 | -0.48494 | 90 ft | 3 kts | 316° |
| 2026-05-04 02:12 | 51.47249 | -0.48478 | 90 ft | 3 kts | 350° |
| 2026-05-04 02:12 | 51.47234 | -0.48476 | 87 ft | 1 kts | 360° |
| 2026-05-04 02:12 | 51.47229 | -0.48476 | 87 ft | 0 kts | 360° |
| 2026-05-04 02:15 | 51.47244 | -0.48476 | 89 ft | 7 kts | 1° |
| 2026-05-04 02:15 | 51.47273 | -0.48395 | 89 ft | 10 kts | 82° |
| 2026-05-04 02:15 | 51.47338 | -0.48361 | 87 ft | 12 kts | 359° |
| 2026-05-04 02:15 | 51.47428 | -0.48362 | 87 ft | 14 kts | 359° |
| 2026-05-04 02:16 | 51.47535 | -0.48363 | 87 ft | 17 kts | 0° |
| 2026-05-04 02:16 | 51.47579 | -0.48258 | 89 ft | 13 kts | 94° |
| 2026-05-04 02:16 | 51.47578 | -0.48096 | 88 ft | 16 kts | 90° |
| 2026-05-04 02:16 | 51.47579 | -0.47910 | 89 ft | 18 kts | 90° |
| 2026-05-04 02:17 | 51.47580 | -0.47698 | 90 ft | 20 kts | 89° |
| 2026-05-04 02:17 | 51.47580 | -0.47460 | 90 ft | 22 kts | 89° |
| 2026-05-04 02:17 | 51.47582 | -0.47199 | 89 ft | 24 kts | 89° |
| 2026-05-04 02:17 | 51.47583 | -0.46916 | 87 ft | 26 kts | 89° |
| 2026-05-04 02:18 | 51.47592 | -0.46615 | 87 ft | 28 kts | 89° |
| 2026-05-04 02:18 | 51.47594 | -0.46294 | 87 ft | 30 kts | 89° |
| 2026-05-04 02:18 | 51.47595 | -0.45955 | 89 ft | 31 kts | 90° |
| 2026-05-04 02:18 | 51.47595 | -0.45694 | 89 ft | 15 kts | 89° |
| 2026-05-04 02:19 | 51.47596 | -0.45515 | 90 ft | 17 kts | 90° |
| 2026-05-04 02:19 | 51.47596 | -0.45309 | 90 ft | 20 kts | 89° |
| 2026-05-04 02:19 | 51.47597 | -0.45077 | 87 ft | 22 kts | 91° |
| 2026-05-04 02:19 | 51.47598 | -0.44823 | 87 ft | 24 kts | 89° |
| 2026-05-04 02:20 | 51.47600 | -0.44546 | 87 ft | 26 kts | 89° |
| 2026-05-04 02:20 | 51.47593 | -0.44263 | 89 ft | 23 kts | 96° |
| 2026-05-04 02:20 | 51.47592 | -0.43991 | 87 ft | 25 kts | 89° |
| 2026-05-04 02:20 | 51.47594 | -0.43702 | 87 ft | 23 kts | 89° |
| 2026-05-04 02:21 | 51.47596 | -0.43569 | 91 ft | 7 kts | 69° |
| 2026-05-04 02:21 | 51.47612 | -0.43542 | 90 ft | 4 kts | 44° |
| 2026-05-04 02:21 | 51.47634 | -0.43505 | 89 ft | 6 kts | 47° |
| 2026-05-04 02:21 | 51.47663 | -0.43446 | 87 ft | 7 kts | 56° |
| 2026-05-04 02:22 | 51.47694 | -0.43372 | 91 ft | 8 kts | 40° |
| 2026-05-04 02:22 | 51.47750 | -0.43396 | 88 ft | 10 kts | 320° |
| 2026-05-04 02:22 | 51.47768 | -0.43462 | 91 ft | 1 kts | 270° |
| 2026-05-04 02:23 | 51.47768 | -0.43478 | 89 ft | 8 kts | 270° |
| 2026-05-04 02:23 | 51.47767 | -0.43904 | 84 ft | 73 kts | 269° |
| 2026-05-04 02:23 | 51.47764 | -0.44589 | 89 ft | 111 kts | 270° |
| 2026-05-04 02:23 | 51.47756 | -0.46681 | 110 ft | 167 kts | 271° |
| 2026-05-04 02:24 | 51.47739 | -0.48539 | 687 ft | 166 kts | 269° |
| 2026-05-04 02:24 | 51.47716 | -0.50396 | 1325 ft | 167 kts | 269° |
| 2026-05-04 02:24 | 51.47693 | -0.52277 | 1872 ft | 174 kts | 269° |
| 2026-05-04 02:24 | 51.47731 | -0.54333 | 2108 ft | 196 kts | 282° |
| 2026-05-04 02:25 | 51.48273 | -0.56459 | 2418 ft | 217 kts | 296° |
| 2026-05-04 02:25 | 51.48997 | -0.58765 | 2701 ft | 245 kts | 296° |
| 2026-05-04 02:25 | 51.49804 | -0.61269 | 3352 ft | 257 kts | 297° |
| 2026-05-04 02:25 | 51.50627 | -0.63800 | 4243 ft | 261 kts | 296° |
| 2026-05-04 02:26 | 51.51509 | -0.66361 | 5118 ft | 265 kts | 305° |
| 2026-05-04 02:26 | 51.52965 | -0.68179 | 5937 ft | 274 kts | 339° |
| 2026-05-04 02:26 | 51.54869 | -0.68612 | 6759 ft | 279 kts | 357° |
| 2026-05-04 02:26 | 51.56817 | -0.68683 | 7566 ft | 282 kts | 358° |
| 2026-05-04 02:27 | 51.58125 | -0.68718 | 8109 ft | 285 kts | 358° |
| 2026-05-04 02:27 | 51.60796 | -0.68837 | 9192 ft | 289 kts | 356° |
| 2026-05-04 02:27 | 51.62795 | -0.68982 | 9968 ft | 293 kts | 356° |
| 2026-05-04 02:27 | 51.64883 | -0.69173 | 10351 ft | 311 kts | 355° |
| 2026-05-04 02:28 | 51.67123 | -0.69410 | 10531 ft | 334 kts | 355° |
| 2026-05-04 02:28 | 51.68723 | -0.69589 | 10627 ft | 349 kts | 355° |
| 2026-05-04 02:28 | 51.71162 | -0.69865 | 11052 ft | 360 kts | 355° |
| 2026-05-04 02:28 | 51.73680 | -0.70148 | 11661 ft | 365 kts | 355° |
| 2026-05-04 02:29 | 51.76231 | -0.70433 | 12293 ft | 369 kts | 355° |
| 2026-05-04 02:29 | 51.78807 | -0.70722 | 12941 ft | 373 kts | 355° |
| 2026-05-04 02:29 | 51.81410 | -0.71016 | 13593 ft | 377 kts | 354° |
| 2026-05-04 02:29 | 51.84903 | -0.71411 | 14376 ft | 382 kts | 354° |
| 2026-05-04 02:30 | 51.86699 | -0.71613 | 14761 ft | 384 kts | 354° |
| 2026-05-04 02:30 | 51.90252 | -0.72015 | 15510 ft | 389 kts | 354° |
| 2026-05-04 02:30 | 51.92084 | -0.72225 | 15885 ft | 391 kts | 354° |
| 2026-05-04 02:30 | 51.94769 | -0.72532 | 16442 ft | 394 kts | 354° |
| 2026-05-04 02:31 | 51.97520 | -0.72843 | 17021 ft | 398 kts | 354° |
| 2026-05-04 02:31 | 52.00294 | -0.73161 | 17595 ft | 401 kts | 353° |
| 2026-05-04 02:31 | 52.03047 | -0.73939 | 18185 ft | 403 kts | 342° |
| 2026-05-04 02:31 | 52.05729 | -0.75300 | 18719 ft | 405 kts | 340° |
| 2026-05-04 02:32 | 52.08425 | -0.76710 | 19273 ft | 408 kts | 340° |
| 2026-05-04 02:32 | 52.11139 | -0.78124 | 19839 ft | 411 kts | 340° |
| 2026-05-04 02:32 | 52.13876 | -0.79548 | 20373 ft | 414 kts | 340° |
| 2026-05-04 02:32 | 52.16594 | -0.80965 | 20880 ft | 417 kts | 340° |
| 2026-05-04 02:33 | 52.19365 | -0.82411 | 21376 ft | 420 kts | 340° |
| 2026-05-04 02:33 | 52.22154 | -0.83873 | 21854 ft | 422 kts | 340° |
| 2026-05-04 02:33 | 52.24900 | -0.85582 | 22307 ft | 423 kts | 332° |
| 2026-05-04 02:33 | 52.27462 | -0.87932 | 22762 ft | 423 kts | 326° |
| 2026-05-04 02:34 | 52.29984 | -0.90453 | 23199 ft | 426 kts | 326° |
| 2026-05-04 02:34 | 52.32521 | -0.92981 | 23616 ft | 429 kts | 326° |
| 2026-05-04 02:34 | 52.35078 | -0.95525 | 23969 ft | 431 kts | 327° |
| 2026-05-04 02:34 | 52.37652 | -0.98087 | 24319 ft | 434 kts | 327° |
| 2026-05-04 02:35 | 52.40234 | -1.00658 | 24670 ft | 436 kts | 327° |
| 2026-05-04 02:35 | 52.42793 | -1.03216 | 24999 ft | 438 kts | 327° |
| 2026-05-04 02:35 | 52.45400 | -1.05834 | 25338 ft | 440 kts | 327° |
| 2026-05-04 02:35 | 52.48017 | -1.08468 | 25665 ft | 442 kts | 327° |
| 2026-05-04 02:36 | 52.50645 | -1.11115 | 25998 ft | 445 kts | 327° |
| 2026-05-04 02:36 | 52.53287 | -1.13777 | 26335 ft | 447 kts | 327° |
| 2026-05-04 02:36 | 52.55941 | -1.16453 | 26673 ft | 449 kts | 327° |
| 2026-05-04 02:36 | 52.58613 | -1.19148 | 26996 ft | 451 kts | 327° |
| 2026-05-04 02:37 | 52.61288 | -1.21847 | 27312 ft | 453 kts | 327° |
| 2026-05-04 02:37 | 52.63983 | -1.24567 | 27656 ft | 454 kts | 327° |
| 2026-05-04 02:37 | 52.66671 | -1.27280 | 28122 ft | 453 kts | 327° |
| 2026-05-04 02:37 | 52.69323 | -1.29960 | 28596 ft | 452 kts | 327° |
| 2026-05-04 02:38 | 52.71996 | -1.32667 | 29072 ft | 451 kts | 327° |
| 2026-05-04 02:38 | 52.74661 | -1.35381 | 29606 ft | 450 kts | 327° |
| 2026-05-04 02:38 | 52.77314 | -1.38093 | 30080 ft | 448 kts | 327° |
| 2026-05-04 02:38 | 52.79964 | -1.40803 | 30480 ft | 448 kts | 327° |
| 2026-05-04 02:39 | 52.82609 | -1.43511 | 30889 ft | 446 kts | 327° |
| 2026-05-04 02:39 | 52.85246 | -1.46215 | 31298 ft | 445 kts | 327° |
| 2026-05-04 02:39 | 52.87841 | -1.48877 | 31707 ft | 444 kts | 327° |
| 2026-05-04 02:39 | 52.90467 | -1.51577 | 31952 ft | 444 kts | 327° |
| 2026-05-04 02:40 | 52.95784 | -1.57048 | 32000 ft | 454 kts | 327° |
| 2026-05-04 02:40 | 53.01155 | -1.62591 | 31999 ft | 455 kts | 327° |
| 2026-05-04 02:41 | 53.06515 | -1.68151 | 31997 ft | 454 kts | 327° |
| 2026-05-04 02:41 | 53.11835 | -1.73674 | 32001 ft | 453 kts | 327° |
| 2026-05-04 02:42 | 53.17174 | -1.79236 | 31999 ft | 452 kts | 327° |
| 2026-05-04 02:42 | 53.22501 | -1.84809 | 32006 ft | 452 kts | 328° |
| 2026-05-04 02:43 | 53.27878 | -1.90235 | 32016 ft | 451 kts | 330° |
| 2026-05-04 02:43 | 53.33353 | -1.95345 | 32022 ft | 450 kts | 331° |
| 2026-05-04 02:44 | 53.38794 | -2.00387 | 32017 ft | 449 kts | 331° |
| 2026-05-04 02:44 | 53.44235 | -2.05540 | 32019 ft | 449 kts | 330° |
| 2026-05-04 02:45 | 53.49646 | -2.10731 | 32021 ft | 448 kts | 330° |
| 2026-05-04 02:45 | 53.55041 | -2.15958 | 32011 ft | 448 kts | 328° |
| 2026-05-04 02:46 | 53.59625 | -2.22905 | 32009 ft | 449 kts | 309° |
| 2026-05-04 02:46 | 53.62664 | -2.32086 | 32010 ft | 452 kts | 292° |
| 2026-05-04 02:47 | 53.64930 | -2.41967 | 32007 ft | 452 kts | 293° |
| 2026-05-04 02:47 | 53.67193 | -2.51862 | 32006 ft | 453 kts | 293° |
| 2026-05-04 02:48 | 53.69436 | -2.61719 | 32000 ft | 453 kts | 293° |
| 2026-05-04 02:48 | 53.71678 | -2.71662 | 32003 ft | 454 kts | 293° |
| 2026-05-04 02:49 | 53.73928 | -2.81628 | 32000 ft | 455 kts | 294° |
| 2026-05-04 02:49 | 53.76169 | -2.91631 | 32001 ft | 455 kts | 294° |
| 2026-05-04 02:50 | 53.78381 | -3.01584 | 32004 ft | 456 kts | 294° |
| 2026-05-04 02:50 | 53.80607 | -3.11631 | 32003 ft | 456 kts | 294° |
| 2026-05-04 02:51 | 53.82826 | -3.21679 | 32012 ft | 456 kts | 294° |
| 2026-05-04 02:51 | 53.85036 | -3.31754 | 32018 ft | 456 kts | 294° |
| 2026-05-04 02:52 | 53.87225 | -3.41764 | 32022 ft | 456 kts | 294° |
| 2026-05-04 02:52 | 53.89421 | -3.51856 | 32026 ft | 456 kts | 294° |
| 2026-05-04 02:53 | 53.91617 | -3.61956 | 32024 ft | 456 kts | 294° |
| 2026-05-04 02:53 | 53.93793 | -3.72074 | 32026 ft | 456 kts | 294° |
| 2026-05-04 02:54 | 53.95992 | -3.82086 | 32029 ft | 453 kts | 299° |
| 2026-05-04 02:54 | 53.99018 | -3.91392 | 32034 ft | 450 kts | 304° |
| 2026-05-04 02:55 | 54.02096 | -4.00521 | 30886 ft | 449 kts | 304° |
| 2026-05-04 02:55 | 54.03673 | -4.05199 | 29415 ft | 462 kts | 304° |
| 2026-05-04 02:55 | 54.05250 | -4.09885 | 27852 ft | 464 kts | 303° |
| 2026-05-04 02:56 | 54.06972 | -4.14578 | 26239 ft | 468 kts | 308° |
| 2026-05-04 02:56 | 54.08854 | -4.19047 | 25650 ft | 458 kts | 308° |
| 2026-05-04 02:56 | 54.10677 | -4.23435 | 24974 ft | 451 kts | 308° |
| 2026-05-04 02:56 | 54.12470 | -4.27791 | 24236 ft | 447 kts | 307° |
| 2026-05-04 02:57 | 54.14242 | -4.32114 | 23484 ft | 443 kts | 307° |
| 2026-05-04 02:57 | 54.15999 | -4.36404 | 22712 ft | 438 kts | 307° |
| 2026-05-04 02:57 | 54.17730 | -4.40626 | 22014 ft | 432 kts | 307° |
| 2026-05-04 02:57 | 54.19444 | -4.44800 | 21310 ft | 426 kts | 307° |
| 2026-05-04 02:58 | 54.21116 | -4.48865 | 20629 ft | 422 kts | 306° |
| 2026-05-04 02:58 | 54.22790 | -4.52941 | 19955 ft | 417 kts | 306° |
| 2026-05-04 02:58 | 54.24449 | -4.56985 | 19310 ft | 413 kts | 306° |
| 2026-05-04 02:58 | 54.26088 | -4.60989 | 18687 ft | 409 kts | 306° |
| 2026-05-04 02:59 | 54.27709 | -4.64966 | 18042 ft | 406 kts | 306° |
| 2026-05-04 02:59 | 54.29316 | -4.68920 | 17442 ft | 402 kts | 306° |
| 2026-05-04 02:59 | 54.30899 | -4.72825 | 16858 ft | 398 kts | 306° |
| 2026-05-04 02:59 | 54.32469 | -4.76700 | 16288 ft | 394 kts | 306° |
| 2026-05-04 03:00 | 54.34025 | -4.80545 | 15706 ft | 391 kts | 306° |
| 2026-05-04 03:00 | 54.35551 | -4.84314 | 15122 ft | 388 kts | 306° |
| 2026-05-04 03:00 | 54.37085 | -4.88109 | 14520 ft | 386 kts | 305° |
| 2026-05-04 03:00 | 54.38606 | -4.91879 | 13917 ft | 383 kts | 305° |
| 2026-05-04 03:01 | 54.40116 | -4.95633 | 13239 ft | 381 kts | 305° |
| 2026-05-04 03:01 | 54.41610 | -4.99357 | 12610 ft | 377 kts | 305° |
| 2026-05-04 03:01 | 54.43088 | -5.03040 | 11970 ft | 373 kts | 305° |
| 2026-05-04 03:01 | 54.44553 | -5.06688 | 11342 ft | 369 kts | 305° |
| 2026-05-04 03:02 | 54.45985 | -5.10234 | 10902 ft | 360 kts | 305° |
| 2026-05-04 03:02 | 54.47384 | -5.13685 | 10774 ft | 343 kts | 306° |
| 2026-05-04 03:02 | 54.48718 | -5.16975 | 10652 ft | 328 kts | 306° |
| 2026-05-04 03:02 | 54.49996 | -5.20128 | 10531 ft | 315 kts | 307° |
| 2026-05-04 03:03 | 54.51428 | -5.22879 | 10409 ft | 303 kts | 319° |
| 2026-05-04 03:03 | 54.53042 | -5.25101 | 10285 ft | 292 kts | 322° |
| 2026-05-04 03:03 | 54.54614 | -5.27228 | 10086 ft | 285 kts | 322° |
| 2026-05-04 03:03 | 54.56151 | -5.29314 | 9960 ft | 280 kts | 322° |
| 2026-05-04 03:04 | 54.57665 | -5.31372 | 9745 ft | 283 kts | 322° |
| 2026-05-04 03:04 | 54.59214 | -5.33480 | 9354 ft | 282 kts | 322° |
| 2026-05-04 03:04 | 54.60761 | -5.35587 | 8871 ft | 285 kts | 322° |
| 2026-05-04 03:04 | 54.62296 | -5.37681 | 8617 ft | 280 kts | 322° |
| 2026-05-04 03:05 | 54.63802 | -5.39738 | 8398 ft | 273 kts | 322° |
| 2026-05-04 03:05 | 54.65261 | -5.41733 | 8178 ft | 263 kts | 321° |
| 2026-05-04 03:05 | 54.66685 | -5.43683 | 7801 ft | 260 kts | 321° |
| 2026-05-04 03:05 | 54.68097 | -5.45617 | 7390 ft | 258 kts | 321° |
| 2026-05-04 03:06 | 54.69496 | -5.47540 | 6985 ft | 256 kts | 321° |
| 2026-05-04 03:06 | 54.70872 | -5.49432 | 6596 ft | 255 kts | 321° |
| 2026-05-04 03:06 | 54.72256 | -5.51337 | 6183 ft | 253 kts | 321° |
| 2026-05-04 03:06 | 54.73634 | -5.53234 | 5760 ft | 252 kts | 321° |
| 2026-05-04 03:07 | 54.74997 | -5.55112 | 5274 ft | 250 kts | 322° |
| 2026-05-04 03:07 | 54.76375 | -5.57008 | 4584 ft | 255 kts | 322° |
| 2026-05-04 03:07 | 54.77700 | -5.59070 | 3937 ft | 256 kts | 307° |
| 2026-05-04 03:07 | 54.78403 | -5.61831 | 3692 ft | 251 kts | 281° |
| 2026-05-04 03:08 | 54.78386 | -5.64758 | 3541 ft | 245 kts | 259° |
| 2026-05-04 03:08 | 54.77744 | -5.67430 | 3423 ft | 238 kts | 237° |
| 2026-05-04 03:08 | 54.76624 | -5.69438 | 3331 ft | 228 kts | 216° |
| 2026-05-04 03:08 | 54.75322 | -5.70999 | 3150 ft | 226 kts | 216° |
| 2026-05-04 03:09 | 54.74040 | -5.72552 | 2856 ft | 222 kts | 216° |
| 2026-05-04 03:09 | 54.72803 | -5.74046 | 2563 ft | 211 kts | 216° |
| 2026-05-04 03:09 | 54.71624 | -5.75467 | 2306 ft | 200 kts | 216° |
| 2026-05-04 03:09 | 54.70516 | -5.76800 | 2024 ft | 190 kts | 217° |
| 2026-05-04 03:10 | 54.69480 | -5.78046 | 1758 ft | 177 kts | 217° |
| 2026-05-04 03:10 | 54.68531 | -5.79185 | 1531 ft | 158 kts | 217° |
| 2026-05-04 03:10 | 54.67657 | -5.80237 | 1311 ft | 150 kts | 217° |
| 2026-05-04 03:10 | 54.66810 | -5.81254 | 1105 ft | 147 kts | 217° |
| 2026-05-04 03:11 | 54.65978 | -5.82253 | 893 ft | 145 kts | 217° |
| 2026-05-04 03:11 | 54.65157 | -5.83238 | 691 ft | 143 kts | 217° |
| 2026-05-04 03:11 | 54.64369 | -5.84183 | 512 ft | 141 kts | 217° |
| 2026-05-04 03:11 | 54.63556 | -5.85157 | 316 ft | 142 kts | 217° |
| 2026-05-04 03:12 | 54.62746 | -5.86125 | 121 ft | 141 kts | 217° |
| 2026-05-04 03:12 | 54.61971 | -5.87067 | 20 ft | 125 kts | 215° |
| 2026-05-04 03:12 | 54.61255 | -5.87966 | 135 ft | 139 kts | 218° |
| 2026-05-04 03:12 | 54.60428 | -5.88954 | 783 ft | 149 kts | 216° |
| 2026-05-04 03:13 | 54.59566 | -5.89981 | 1551 ft | 151 kts | 217° |
| 2026-05-04 03:13 | 54.58683 | -5.91085 | 1830 ft | 169 kts | 218° |
| 2026-05-04 03:13 | 54.57663 | -5.92325 | 2052 ft | 190 kts | 210° |
| 2026-05-04 03:13 | 54.56320 | -5.92783 | 2336 ft | 209 kts | 172° |
| 2026-05-04 03:14 | 54.55009 | -5.91715 | 2851 ft | 215 kts | 135° |
| 2026-05-04 03:14 | 54.54231 | -5.89525 | 2990 ft | 217 kts | 101° |
| 2026-05-04 03:14 | 54.54288 | -5.86992 | 2968 ft | 212 kts | 71° |
| 2026-05-04 03:14 | 54.54918 | -5.84716 | 2997 ft | 210 kts | 46° |
| 2026-05-04 03:15 | 54.56105 | -5.83277 | 3007 ft | 210 kts | 28° |
| 2026-05-04 03:15 | 54.57336 | -5.81927 | 3010 ft | 210 kts | 35° |
| 2026-05-04 03:15 | 54.58476 | -5.80398 | 3010 ft | 210 kts | 38° |
| 2026-05-04 03:15 | 54.59605 | -5.78790 | 3007 ft | 210 kts | 39° |
| 2026-05-04 03:16 | 54.60729 | -5.77178 | 2923 ft | 210 kts | 38° |
| 2026-05-04 03:16 | 54.61841 | -5.75573 | 2618 ft | 209 kts | 39° |
| 2026-05-04 03:16 | 54.62952 | -5.73963 | 2341 ft | 208 kts | 39° |
| 2026-05-04 03:16 | 54.64052 | -5.72362 | 2077 ft | 205 kts | 39° |
| 2026-05-04 03:17 | 54.65201 | -5.70914 | 2006 ft | 205 kts | 31° |
| 2026-05-04 03:17 | 54.66406 | -5.69656 | 2013 ft | 206 kts | 29° |
| 2026-05-04 03:17 | 54.67652 | -5.68454 | 2009 ft | 204 kts | 20° |
| 2026-05-04 03:17 | 54.68987 | -5.68100 | 1997 ft | 188 kts | 352° |
| 2026-05-04 03:18 | 54.70181 | -5.68840 | 2052 ft | 182 kts | 327° |
| 2026-05-04 03:18 | 54.71027 | -5.70420 | 2016 ft | 181 kts | 300° |
| 2026-05-04 03:18 | 54.71354 | -5.72513 | 2010 ft | 183 kts | 273° |
| 2026-05-04 03:18 | 54.71125 | -5.74667 | 2003 ft | 178 kts | 251° |
| 2026-05-04 03:19 | 54.70525 | -5.76483 | 1936 ft | 173 kts | 233° |
| 2026-05-04 03:19 | 54.69634 | -5.77866 | 1761 ft | 172 kts | 217° |
| 2026-05-04 03:19 | 54.68668 | -5.79022 | 1554 ft | 170 kts | 217° |
| 2026-05-04 03:19 | 54.67701 | -5.80185 | 1323 ft | 169 kts | 217° |
| 2026-05-04 03:20 | 54.66713 | -5.81372 | 1083 ft | 175 kts | 216° |
| 2026-05-04 03:20 | 54.65772 | -5.82499 | 841 ft | 155 kts | 217° |
| 2026-05-04 03:20 | 54.64921 | -5.83520 | 631 ft | 145 kts | 217° |
| 2026-05-04 03:20 | 54.64102 | -5.84501 | 411 ft | 142 kts | 217° |
| 2026-05-04 03:21 | 54.63292 | -5.85470 | 227 ft | 141 kts | 216° |
| 2026-05-04 03:21 | 54.62488 | -5.86441 | 61 ft | 141 kts | 217° |
| 2026-05-04 03:21 | 54.61750 | -5.87323 | 19 ft | 105 kts | 214° |
| 2026-05-04 03:21 | 54.61402 | -5.87739 | 13 ft | 25 kts | 214° |
| 2026-05-04 03:22 | 54.61321 | -5.87806 | 14 ft | 10 kts | 172° |
| 2026-05-04 03:22 | 54.61283 | -5.87723 | 15 ft | 8 kts | 124° |
| 2026-05-04 03:22 | 54.61253 | -5.87638 | 17 ft | 7 kts | 104° |
| 2026-05-04 03:22 | 54.61274 | -5.87574 | 18 ft | 7 kts | 36° |
| 2026-05-04 03:23 | 54.61317 | -5.87525 | 19 ft | 8 kts | 33° |
| 2026-05-04 03:23 | 54.61363 | -5.87471 | 21 ft | 9 kts | 34° |
| 2026-05-04 03:23 | 54.61405 | -5.87397 | 21 ft | 9 kts | 57° |
| 2026-05-04 03:23 | 54.61445 | -5.87325 | 21 ft | 2 kts | 35° |
| 2026-05-04 03:24 | 54.61467 | -5.87299 | 22 ft | 5 kts | 34° |
| 2026-05-04 03:24 | 54.61508 | -5.87252 | 21 ft | 9 kts | 34° |
| 2026-05-04 03:24 | 54.61548 | -5.87200 | 21 ft | 3 kts | 50° |
| 2026-05-04 03:24 | 54.61546 | -5.87182 | 21 ft | 0 kts | 120° |
| 2026-05-04 03:25 | 54.61542 | -5.87180 | 21 ft | 2 kts | 144° |
| 2026-05-04 03:25 | 54.61522 | -5.87162 | 21 ft | 5 kts | 158° |
| 2026-05-04 03:25 | 54.61504 | -5.87149 | 21 ft | 0 kts | 155° |
| 2026-05-04 03:25 | 54.61503 | -5.87148 | 24 ft | 0 kts | 155° |